Terminal Aerodrome Forecast
Issued by NWS Des Moines, IA

Home | Current Version | Previous Version | Text Only | Print | Product List | Glossary On
Versions: 1 2 3 4 5 6 7 8 9 10 11 12 13 14 15 16 17 18 19 20 21 22 23 24
000
FTUS43 KDMX 250539
TAFALO
TAF
KALO 250539Z 2506/2606 16013KT P6SM SKC WS020/17040KT
     FM250700 16009G17KT P6SM SCT180
     FM251500 16007KT P6SM VCSH BKN100
     FM252100 13011G18KT P6SM VCSH BKN060
     FM260000 13006KT P6SM OVC050
     FM260500 13005KT P6SM OVC028=

USA.gov is the U.S. government's official web portal to all federal, state and local government web resources and services.